sensor_id;sensor_type;location;lat;lon;timestamp;P1;durP1;ratioP1;P2;durP2;ratioP2
51838;SDS011;37886;53.174;6.368;2023-04-23T00:00:34;249.75;;;75.53;;
51838;SDS011;37886;53.174;6.368;2023-04-23T00:03:04;255.55;;;74.80;;
51838;SDS011;37886;53.174;6.368;2023-04-23T00:05:34;267.58;;;74.10;;
51838;SDS011;37886;53.174;6.368;2023-04-23T00:08:01;237.82;;;72.72;;
51838;SDS011;37886;53.174;6.368;2023-04-23T00:10:28;232.30;;;73.22;;
51838;SDS011;37886;53.174;6.368;2023-04-23T00:12:53;231.63;;;71.35;;
51838;SDS011;37886;53.174;6.368;2023-04-23T00:15:19;205.82;;;71.57;;
51838;SDS011;37886;53.174;6.368;2023-04-23T00:17:46;256.58;;;69.95;;
51838;SDS011;37886;53.174;6.368;2023-04-23T00:20:13;321.80;;;72.32;;
51838;SDS011;37886;53.174;6.368;2023-04-23T00:22:40;341.55;;;72.68;;
51838;SDS011;37886;53.174;6.368;2023-04-23T00:25:07;296.38;;;70.43;;
51838;SDS011;37886;53.174;6.368;2023-04-23T00:27:36;218.25;;;67.13;;
51838;SDS011;37886;53.174;6.368;2023-04-23T00:30:02;228.50;;;64.75;;
51838;SDS011;37886;53.174;6.368;2023-04-23T00:32:29;251.20;;;72.28;;
51838;SDS011;37886;53.174;6.368;2023-04-23T00:34:54;277.55;;;69.57;;
51838;SDS011;37886;53.174;6.368;2023-04-23T00:37:20;229.57;;;68.00;;
51838;SDS011;37886;53.174;6.368;2023-04-23T00:39:46;228.15;;;69.35;;
51838;SDS011;37886;53.174;6.368;2023-04-23T00:42:12;272.38;;;68.95;;
51838;SDS011;37886;53.174;6.368;2023-04-23T00:44:41;282.02;;;71.57;;
51838;SDS011;37886;53.174;6.368;2023-04-23T00:47:07;269.92;;;67.97;;
51838;SDS011;37886;53.174;6.368;2023-04-23T00:49:33;232.73;;;68.57;;
51838;SDS011;37886;53.174;6.368;2023-04-23T00:52:00;276.95;;;74.22;;
51838;SDS011;37886;53.174;6.368;2023-04-23T00:54:26;273.23;;;70.95;;
51838;SDS011;37886;53.174;6.368;2023-04-23T00:56:52;274.15;;;73.10;;
51838;SDS011;37886;53.174;6.368;2023-04-23T00:59:19;260.17;;;71.13;;
51838;SDS011;37886;53.174;6.368;2023-04-23T01:01:45;224.43;;;73.10;;
51838;SDS011;37886;53.174;6.368;2023-04-23T01:04:12;213.82;;;68.03;;
51838;SDS011;37886;53.174;6.368;2023-04-23T01:06:40;211.00;;;68.97;;
51838;SDS011;37886;53.174;6.368;2023-04-23T01:09:07;218.73;;;68.80;;
51838;SDS011;37886;53.174;6.368;2023-04-23T01:11:34;209.68;;;69.45;;
51838;SDS011;37886;53.174;6.368;2023-04-23T01:14:03;205.73;;;70.32;;
51838;SDS011;37886;53.174;6.368;2023-04-23T01:16:29;182.43;;;64.93;;
51838;SDS011;37886;53.174;6.368;2023-04-23T01:18:55;181.93;;;66.53;;
51838;SDS011;37886;53.174;6.368;2023-04-23T01:21:22;193.90;;;67.03;;
51838;SDS011;37886;53.174;6.368;2023-04-23T01:23:49;181.80;;;63.75;;
51838;SDS011;37886;53.174;6.368;2023-04-23T01:26:15;182.95;;;66.63;;
51838;SDS011;37886;53.174;6.368;2023-04-23T01:28:43;174.00;;;67.63;;
51838;SDS011;37886;53.174;6.368;2023-04-23T01:31:10;175.32;;;66.40;;
51838;SDS011;37886;53.174;6.368;2023-04-23T01:33:38;172.02;;;67.95;;
51838;SDS011;37886;53.174;6.368;2023-04-23T01:36:05;184.73;;;67.63;;
51838;SDS011;37886;53.174;6.368;2023-04-23T01:38:32;178.63;;;67.30;;
51838;SDS011;37886;53.174;6.368;2023-04-23T01:41:00;171.43;;;66.75;;
51838;SDS011;37886;53.174;6.368;2023-04-23T01:43:25;189.90;;;70.65;;
51838;SDS011;37886;53.174;6.368;2023-04-23T01:45:53;199.13;;;70.63;;
51838;SDS011;37886;53.174;6.368;2023-04-23T01:48:19;216.77;;;74.40;;
51838;SDS011;37886;53.174;6.368;2023-04-23T01:50:45;177.75;;;69.28;;
51838;SDS011;37886;53.174;6.368;2023-04-23T01:53:11;201.90;;;73.28;;
51838;SDS011;37886;53.174;6.368;2023-04-23T01:55:37;181.35;;;73.53;;
51838;SDS011;37886;53.174;6.368;2023-04-23T01:58:04;202.95;;;74.45;;
51838;SDS011;37886;53.174;6.368;2023-04-23T02:00:30;200.68;;;74.90;;
51838;SDS011;37886;53.174;6.368;2023-04-23T02:02:56;173.48;;;68.43;;
51838;SDS011;37886;53.174;6.368;2023-04-23T02:05:21;209.77;;;76.55;;
51838;SDS011;37886;53.174;6.368;2023-04-23T02:07:50;210.82;;;76.68;;
51838;SDS011;37886;53.174;6.368;2023-04-23T02:10:16;203.35;;;78.20;;
51838;SDS011;37886;53.174;6.368;2023-04-23T02:12:43;221.18;;;78.35;;
51838;SDS011;37886;53.174;6.368;2023-04-23T02:15:09;235.75;;;80.43;;
51838;SDS011;37886;53.174;6.368;2023-04-23T02:17:35;229.55;;;81.53;;
51838;SDS011;37886;53.174;6.368;2023-04-23T02:20:01;246.50;;;84.47;;
51838;SDS011;37886;53.174;6.368;2023-04-23T02:22:27;221.27;;;82.97;;
51838;SDS011;37886;53.174;6.368;2023-04-23T02:24:53;255.18;;;85.60;;
51838;SDS011;37886;53.174;6.368;2023-04-23T02:27:19;231.70;;;83.82;;
51838;SDS011;37886;53.174;6.368;2023-04-23T02:29:46;239.40;;;84.95;;
51838;SDS011;37886;53.174;6.368;2023-04-23T02:32:12;276.95;;;91.22;;
51838;SDS011;37886;53.174;6.368;2023-04-23T02:34:38;242.18;;;84.25;;
51838;SDS011;37886;53.174;6.368;2023-04-23T02:37:04;236.18;;;83.72;;
51838;SDS011;37886;53.174;6.368;2023-04-23T02:39:30;261.42;;;82.20;;
51838;SDS011;37886;53.174;6.368;2023-04-23T02:41:56;260.10;;;84.55;;
51838;SDS011;37886;53.174;6.368;2023-04-23T02:44:23;264.70;;;89.15;;
51838;SDS011;37886;53.174;6.368;2023-04-23T02:46:49;341.90;;;98.20;;
51838;SDS011;37886;53.174;6.368;2023-04-23T02:49:15;382.75;;;106.95;;
51838;SDS011;37886;53.174;6.368;2023-04-23T02:51:41;400.65;;;105.70;;
51838;SDS011;37886;53.174;6.368;2023-04-23T02:54:07;427.67;;;103.63;;
51838;SDS011;37886;53.174;6.368;2023-04-23T02:56:33;587.08;;;116.88;;
51838;SDS011;37886;53.174;6.368;2023-04-23T02:58:59;540.92;;;112.72;;
51838;SDS011;37886;53.174;6.368;2023-04-23T03:01:25;533.25;;;113.93;;
51838;SDS011;37886;53.174;6.368;2023-04-23T03:03:51;685.92;;;117.53;;
51838;SDS011;37886;53.174;6.368;2023-04-23T03:06:16;759.78;;;120.43;;
51838;SDS011;37886;53.174;6.368;2023-04-23T03:08:42;679.05;;;120.97;;
51838;SDS011;37886;53.174;6.368;2023-04-23T03:11:08;594.17;;;119.53;;
51838;SDS011;37886;53.174;6.368;2023-04-23T03:13:33;615.28;;;116.65;;
51838;SDS011;37886;53.174;6.368;2023-04-23T03:15:59;705.20;;;119.95;;
51838;SDS011;37886;53.174;6.368;2023-04-23T03:18:25;656.45;;;118.55;;
51838;SDS011;37886;53.174;6.368;2023-04-23T03:20:51;725.38;;;119.10;;
51838;SDS011;37886;53.174;6.368;2023-04-23T03:23:16;721.58;;;116.35;;
51838;SDS011;37886;53.174;6.368;2023-04-23T03:25:42;803.72;;;121.07;;
51838;SDS011;37886;53.174;6.368;2023-04-23T03:28:08;669.55;;;116.07;;
51838;SDS011;37886;53.174;6.368;2023-04-23T03:30:33;624.97;;;116.50;;
51838;SDS011;37886;53.174;6.368;2023-04-23T03:32:59;743.08;;;123.70;;
51838;SDS011;37886;53.174;6.368;2023-04-23T03:35:26;624.90;;;119.95;;
51838;SDS011;37886;53.174;6.368;2023-04-23T03:37:52;517.20;;;117.38;;
51838;SDS011;37886;53.174;6.368;2023-04-23T03:40:18;564.22;;;114.85;;
51838;SDS011;37886;53.174;6.368;2023-04-23T03:42:44;555.45;;;118.32;;
51838;SDS011;37886;53.174;6.368;2023-04-23T03:45:10;558.78;;;108.80;;
51838;SDS011;37886;53.174;6.368;2023-04-23T03:47:37;686.50;;;126.80;;
51838;SDS011;37886;53.174;6.368;2023-04-23T03:50:04;577.03;;;123.53;;
51838;SDS011;37886;53.174;6.368;2023-04-23T03:52:33;649.40;;;127.63;;
51838;SDS011;37886;53.174;6.368;2023-04-23T03:54:59;551.35;;;125.95;;
51838;SDS011;37886;53.174;6.368;2023-04-23T03:57:25;723.53;;;127.05;;
51838;SDS011;37886;53.174;6.368;2023-04-23T03:59:50;620.40;;;129.70;;
51838;SDS011;37886;53.174;6.368;2023-04-23T04:02:16;589.95;;;128.35;;
51838;SDS011;37886;53.174;6.368;2023-04-23T04:04:42;495.50;;;110.07;;
51838;SDS011;37886;53.174;6.368;2023-04-23T04:07:10;594.17;;;130.75;;
51838;SDS011;37886;53.174;6.368;2023-04-23T04:09:36;570.78;;;128.00;;
51838;SDS011;37886;53.174;6.368;2023-04-23T04:12:03;533.05;;;124.07;;
51838;SDS011;37886;53.174;6.368;2023-04-23T04:14:30;563.08;;;119.95;;
51838;SDS011;37886;53.174;6.368;2023-04-23T04:16:56;528.72;;;127.53;;
51838;SDS011;37886;53.174;6.368;2023-04-23T04:19:22;524.38;;;127.40;;
51838;SDS011;37886;53.174;6.368;2023-04-23T04:21:48;552.97;;;128.48;;
51838;SDS011;37886;53.174;6.368;2023-04-23T04:24:15;491.15;;;121.68;;
51838;SDS011;37886;53.174;6.368;2023-04-23T04:26:42;584.78;;;125.60;;
51838;SDS011;37886;53.174;6.368;2023-04-23T04:29:09;575.22;;;131.10;;
51838;SDS011;37886;53.174;6.368;2023-04-23T04:31:35;565.65;;;126.35;;
51838;SDS011;37886;53.174;6.368;2023-04-23T04:34:02;489.05;;;123.20;;
51838;SDS011;37886;53.174;6.368;2023-04-23T04:36:28;485.13;;;120.85;;
51838;SDS011;37886;53.174;6.368;2023-04-23T04:38:54;513.88;;;121.50;;
51838;SDS011;37886;53.174;6.368;2023-04-23T04:41:22;479.27;;;124.78;;
51838;SDS011;37886;53.174;6.368;2023-04-23T04:43:52;464.42;;;123.35;;
51838;SDS011;37886;53.174;6.368;2023-04-23T04:48:50;435.38;;;114.95;;
51838;SDS011;37886;53.174;6.368;2023-04-23T04:51:16;439.27;;;120.97;;
51838;SDS011;37886;53.174;6.368;2023-04-23T04:53:42;413.05;;;117.47;;
51838;SDS011;37886;53.174;6.368;2023-04-23T04:56:07;401.55;;;117.13;;
51838;SDS011;37886;53.174;6.368;2023-04-23T04:58:33;389.52;;;114.18;;
51838;SDS011;37886;53.174;6.368;2023-04-23T05:00:59;414.08;;;117.32;;
51838;SDS011;37886;53.174;6.368;2023-04-23T05:03:25;431.67;;;119.45;;
51838;SDS011;37886;53.174;6.368;2023-04-23T05:05:51;447.92;;;118.95;;
51838;SDS011;37886;53.174;6.368;2023-04-23T05:08:20;388.60;;;118.93;;
51838;SDS011;37886;53.174;6.368;2023-04-23T05:10:46;375.63;;;114.32;;
51838;SDS011;37886;53.174;6.368;2023-04-23T05:13:14;411.33;;;119.20;;
51838;SDS011;37886;53.174;6.368;2023-04-23T05:15:40;361.27;;;115.97;;
51838;SDS011;37886;53.174;6.368;2023-04-23T05:18:06;381.20;;;118.65;;
51838;SDS011;37886;53.174;6.368;2023-04-23T05:20:33;373.77;;;118.28;;
51838;SDS011;37886;53.174;6.368;2023-04-23T05:22:59;352.17;;;115.40;;
51838;SDS011;37886;53.174;6.368;2023-04-23T05:25:26;306.08;;;109.07;;
51838;SDS011;37886;53.174;6.368;2023-04-23T05:27:53;327.10;;;111.68;;
51838;SDS011;37886;53.174;6.368;2023-04-23T05:30:19;278.73;;;106.43;;
51838;SDS011;37886;53.174;6.368;2023-04-23T05:32:44;269.40;;;101.75;;
51838;SDS011;37886;53.174;6.368;2023-04-23T05:35:10;284.52;;;105.45;;
51838;SDS011;37886;53.174;6.368;2023-04-23T05:37:36;250.98;;;101.07;;
51838;SDS011;37886;53.174;6.368;2023-04-23T05:40:02;232.18;;;98.53;;
51838;SDS011;37886;53.174;6.368;2023-04-23T05:42:30;230.13;;;97.82;;
51838;SDS011;37886;53.174;6.368;2023-04-23T05:44:56;243.13;;;96.90;;
51838;SDS011;37886;53.174;6.368;2023-04-23T05:47:22;228.60;;;93.75;;
51838;SDS011;37886;53.174;6.368;2023-04-23T05:49:47;194.27;;;90.47;;
51838;SDS011;37886;53.174;6.368;2023-04-23T05:52:13;209.77;;;89.18;;
51838;SDS011;37886;53.174;6.368;2023-04-23T05:54:40;220.95;;;93.22;;
51838;SDS011;37886;53.174;6.368;2023-04-23T05:57:06;179.77;;;84.63;;
51838;SDS011;37886;53.174;6.368;2023-04-23T05:59:32;233.98;;;94.22;;
51838;SDS011;37886;53.174;6.368;2023-04-23T06:01:58;194.18;;;89.90;;
51838;SDS011;37886;53.174;6.368;2023-04-23T06:04:24;167.23;;;86.68;;
51838;SDS011;37886;53.174;6.368;2023-04-23T06:06:50;157.45;;;83.13;;
51838;SDS011;37886;53.174;6.368;2023-04-23T06:09:16;174.88;;;84.32;;
51838;SDS011;37886;53.174;6.368;2023-04-23T06:11:42;164.07;;;82.70;;
51838;SDS011;37886;53.174;6.368;2023-04-23T06:14:09;181.95;;;87.25;;
51838;SDS011;37886;53.174;6.368;2023-04-23T06:16:35;170.32;;;87.40;;
51838;SDS011;37886;53.174;6.368;2023-04-23T06:19:02;169.02;;;86.57;;
51838;SDS011;37886;53.174;6.368;2023-04-23T06:21:28;176.85;;;86.72;;
51838;SDS011;37886;53.174;6.368;2023-04-23T06:23:54;171.60;;;86.47;;
51838;SDS011;37886;53.174;6.368;2023-04-23T06:26:20;156.90;;;83.68;;
51838;SDS011;37886;53.174;6.368;2023-04-23T06:28:45;154.90;;;83.32;;
51838;SDS011;37886;53.174;6.368;2023-04-23T06:31:11;163.05;;;82.70;;
51838;SDS011;37886;53.174;6.368;2023-04-23T06:33:37;169.20;;;87.38;;
51838;SDS011;37886;53.174;6.368;2023-04-23T06:36:03;155.63;;;83.53;;
51838;SDS011;37886;53.174;6.368;2023-04-23T06:38:30;153.23;;;82.53;;
51838;SDS011;37886;53.174;6.368;2023-04-23T06:40:56;154.13;;;81.93;;
51838;SDS011;37886;53.174;6.368;2023-04-23T06:43:22;159.32;;;85.22;;
51838;SDS011;37886;53.174;6.368;2023-04-23T06:45:48;175.70;;;87.68;;
51838;SDS011;37886;53.174;6.368;2023-04-23T06:48:14;178.35;;;90.90;;
51838;SDS011;37886;53.174;6.368;2023-04-23T06:50:40;163.82;;;85.40;;
51838;SDS011;37886;53.174;6.368;2023-04-23T06:53:06;162.75;;;87.97;;
51838;SDS011;37886;53.174;6.368;2023-04-23T06:55:32;163.75;;;87.40;;
51838;SDS011;37886;53.174;6.368;2023-04-23T06:57:57;172.85;;;89.15;;
51838;SDS011;37886;53.174;6.368;2023-04-23T07:00:23;148.88;;;82.65;;
51838;SDS011;37886;53.174;6.368;2023-04-23T07:02:49;163.52;;;86.72;;
51838;SDS011;37886;53.174;6.368;2023-04-23T07:05:16;144.68;;;80.75;;
51838;SDS011;37886;53.174;6.368;2023-04-23T07:07:42;158.80;;;85.63;;
51838;SDS011;37886;53.174;6.368;2023-04-23T07:10:11;144.45;;;82.57;;
51838;SDS011;37886;53.174;6.368;2023-04-23T07:12:37;137.30;;;82.70;;
51838;SDS011;37886;53.174;6.368;2023-04-23T07:15:04;124.80;;;73.80;;
51838;SDS011;37886;53.174;6.368;2023-04-23T07:17:30;124.80;;;77.85;;
51838;SDS011;37886;53.174;6.368;2023-04-23T07:19:56;117.43;;;72.25;;
51838;SDS011;37886;53.174;6.368;2023-04-23T07:22:22;112.13;;;71.22;;
51838;SDS011;37886;53.174;6.368;2023-04-23T07:24:49;121.07;;;73.72;;
51838;SDS011;37886;53.174;6.368;2023-04-23T07:27:16;105.00;;;69.80;;
51838;SDS011;37886;53.174;6.368;2023-04-23T07:29:42;107.50;;;69.85;;
51838;SDS011;37886;53.174;6.368;2023-04-23T07:32:07;106.38;;;69.18;;
51838;SDS011;37886;53.174;6.368;2023-04-23T07:34:33;108.53;;;68.32;;
51838;SDS011;37886;53.174;6.368;2023-04-23T07:37:01;106.95;;;68.57;;
51838;SDS011;37886;53.174;6.368;2023-04-23T07:39:27;100.38;;;66.15;;
51838;SDS011;37886;53.174;6.368;2023-04-23T07:41:53;113.25;;;68.78;;
51838;SDS011;37886;53.174;6.368;2023-04-23T07:44:19;99.32;;;66.10;;
51838;SDS011;37886;53.174;6.368;2023-04-23T07:46:44;103.13;;;67.97;;
51838;SDS011;37886;53.174;6.368;2023-04-23T07:49:10;100.70;;;63.40;;
51838;SDS011;37886;53.174;6.368;2023-04-23T07:51:36;96.03;;;62.38;;
51838;SDS011;37886;53.174;6.368;2023-04-23T07:54:02;94.20;;;60.33;;
51838;SDS011;37886;53.174;6.368;2023-04-23T07:56:27;86.25;;;58.97;;
51838;SDS011;37886;53.174;6.368;2023-04-23T07:58:56;82.63;;;57.88;;
51838;SDS011;37886;53.174;6.368;2023-04-23T08:01:22;80.95;;;57.53;;
51838;SDS011;37886;53.174;6.368;2023-04-23T08:03:48;80.85;;;58.45;;
51838;SDS011;37886;53.174;6.368;2023-04-23T08:06:14;82.50;;;58.13;;
51838;SDS011;37886;53.174;6.368;2023-04-23T08:08:40;79.57;;;54.85;;
51838;SDS011;37886;53.174;6.368;2023-04-23T08:11:05;84.22;;;58.67;;
51838;SDS011;37886;53.174;6.368;2023-04-23T08:13:31;81.30;;;56.72;;
51838;SDS011;37886;53.174;6.368;2023-04-23T08:15:57;81.97;;;54.67;;
51838;SDS011;37886;53.174;6.368;2023-04-23T08:18:23;80.45;;;54.90;;
51838;SDS011;37886;53.174;6.368;2023-04-23T08:20:49;80.63;;;55.45;;
51838;SDS011;37886;53.174;6.368;2023-04-23T08:23:15;75.68;;;51.70;;
51838;SDS011;37886;53.174;6.368;2023-04-23T08:25:41;74.20;;;53.47;;
51838;SDS011;37886;53.174;6.368;2023-04-23T08:28:06;74.28;;;51.33;;
51838;SDS011;37886;53.174;6.368;2023-04-23T08:30:32;69.80;;;50.95;;
51838;SDS011;37886;53.174;6.368;2023-04-23T08:32:58;75.05;;;50.97;;
51838;SDS011;37886;53.174;6.368;2023-04-23T08:35:24;68.30;;;48.72;;
51838;SDS011;37886;53.174;6.368;2023-04-23T08:37:49;72.05;;;51.05;;
51838;SDS011;37886;53.174;6.368;2023-04-23T08:40:15;64.28;;;47.08;;
51838;SDS011;37886;53.174;6.368;2023-04-23T08:42:41;64.28;;;46.90;;
51838;SDS011;37886;53.174;6.368;2023-04-23T08:45:12;62.55;;;47.15;;
51838;SDS011;37886;53.174;6.368;2023-04-23T08:47:42;63.40;;;43.95;;
51838;SDS011;37886;53.174;6.368;2023-04-23T08:50:12;64.65;;;45.67;;
51838;SDS011;37886;53.174;6.368;2023-04-23T08:52:55;57.88;;;43.47;;
51838;SDS011;37886;53.174;6.368;2023-04-23T08:55:21;60.50;;;40.00;;
51838;SDS011;37886;53.174;6.368;2023-04-23T08:57:48;54.33;;;39.63;;
51838;SDS011;37886;53.174;6.368;2023-04-23T09:00:16;56.75;;;40.13;;
51838;SDS011;37886;53.174;6.368;2023-04-23T09:02:44;59.13;;;42.80;;
51838;SDS011;37886;53.174;6.368;2023-04-23T09:05:11;58.53;;;40.17;;
51838;SDS011;37886;53.174;6.368;2023-04-23T09:07:38;57.67;;;40.05;;
51838;SDS011;37886;53.174;6.368;2023-04-23T09:10:06;56.75;;;41.30;;
51838;SDS011;37886;53.174;6.368;2023-04-23T09:12:37;52.25;;;39.00;;
51838;SDS011;37886;53.174;6.368;2023-04-23T09:15:05;52.25;;;37.30;;
51838;SDS011;37886;53.174;6.368;2023-04-23T09:17:35;51.22;;;36.70;;
51838;SDS011;37886;53.174;6.368;2023-04-23T09:20:05;43.55;;;34.25;;
51838;SDS011;37886;53.174;6.368;2023-04-23T09:22:40;47.58;;;36.67;;
51838;SDS011;37886;53.174;6.368;2023-04-23T09:25:07;42.25;;;33.22;;
51838;SDS011;37886;53.174;6.368;2023-04-23T09:27:34;40.20;;;30.08;;
51838;SDS011;37886;53.174;6.368;2023-04-23T09:30:03;30.58;;;24.60;;
51838;SDS011;37886;53.174;6.368;2023-04-23T09:32:31;31.33;;;25.13;;
51838;SDS011;37886;53.174;6.368;2023-04-23T09:34:58;35.15;;;27.08;;
51838;SDS011;37886;53.174;6.368;2023-04-23T09:37:27;34.63;;;26.40;;
51838;SDS011;37886;53.174;6.368;2023-04-23T09:39:52;29.08;;;23.92;;
51838;SDS011;37886;53.174;6.368;2023-04-23T09:42:22;30.17;;;22.52;;
51838;SDS011;37886;53.174;6.368;2023-04-23T09:47:48;31.30;;;25.00;;
51838;SDS011;37886;53.174;6.368;2023-04-23T09:50:15;30.73;;;23.83;;
51838;SDS011;37886;53.174;6.368;2023-04-23T09:52:41;31.33;;;25.25;;
51838;SDS011;37886;53.174;6.368;2023-04-23T09:55:07;34.50;;;25.95;;
51838;SDS011;37886;53.174;6.368;2023-04-23T09:57:37;30.60;;;24.92;;
51838;SDS011;37886;53.174;6.368;2023-04-23T10:00:14;30.02;;;24.60;;
51838;SDS011;37886;53.174;6.368;2023-04-23T10:02:47;30.10;;;22.83;;
51838;SDS011;37886;53.174;6.368;2023-04-23T10:05:15;29.70;;;19.77;;
51838;SDS011;37886;53.174;6.368;2023-04-23T10:07:42;24.23;;;18.35;;
51838;SDS011;37886;53.174;6.368;2023-04-23T10:10:09;21.98;;;16.77;;
51838;SDS011;37886;53.174;6.368;2023-04-23T10:12:35;20.48;;;14.88;;
51838;SDS011;37886;53.174;6.368;2023-04-23T10:15:02;21.38;;;15.05;;
51838;SDS011;37886;53.174;6.368;2023-04-23T10:17:29;29.52;;;14.15;;
51838;SDS011;37886;53.174;6.368;2023-04-23T10:19:56;18.75;;;12.25;;
51838;SDS011;37886;53.174;6.368;2023-04-23T10:22:24;18.05;;;13.82;;
51838;SDS011;37886;53.174;6.368;2023-04-23T10:24:55;18.40;;;12.80;;
51838;SDS011;37886;53.174;6.368;2023-04-23T10:27:30;17.02;;;13.45;;
51838;SDS011;37886;53.174;6.368;2023-04-23T10:29:56;18.55;;;13.15;;
51838;SDS011;37886;53.174;6.368;2023-04-23T10:32:23;22.38;;;14.35;;
51838;SDS011;37886;53.174;6.368;2023-04-23T10:34:49;19.92;;;13.85;;
51838;SDS011;37886;53.174;6.368;2023-04-23T10:37:15;20.63;;;13.02;;
51838;SDS011;37886;53.174;6.368;2023-04-23T10:39:43;22.08;;;13.27;;
51838;SDS011;37886;53.174;6.368;2023-04-23T10:42:14;19.58;;;12.40;;
51838;SDS011;37886;53.174;6.368;2023-04-23T10:44:42;18.50;;;13.05;;
51838;SDS011;37886;53.174;6.368;2023-04-23T10:47:14;15.30;;;11.52;;
51838;SDS011;37886;53.174;6.368;2023-04-23T10:49:41;18.58;;;11.95;;
51838;SDS011;37886;53.174;6.368;2023-04-23T10:52:08;14.15;;;11.35;;
51838;SDS011;37886;53.174;6.368;2023-04-23T10:54:39;19.85;;;11.05;;
51838;SDS011;37886;53.174;6.368;2023-04-23T10:57:06;16.60;;;11.40;;
51838;SDS011;37886;53.174;6.368;2023-04-23T10:59:33;18.27;;;10.95;;
51838;SDS011;37886;53.174;6.368;2023-04-23T11:02:07;19.38;;;10.27;;
51838;SDS011;37886;53.174;6.368;2023-04-23T11:04:35;17.35;;;9.23;;
51838;SDS011;37886;53.174;6.368;2023-04-23T11:07:06;18.92;;;9.73;;
51838;SDS011;37886;53.174;6.368;2023-04-23T11:09:41;16.60;;;10.40;;
51838;SDS011;37886;53.174;6.368;2023-04-23T11:12:32;18.08;;;10.20;;
51838;SDS011;37886;53.174;6.368;2023-04-23T11:14:57;14.73;;;10.10;;
51838;SDS011;37886;53.174;6.368;2023-04-23T11:25:04;13.98;;;9.02;;
51838;SDS011;37886;53.174;6.368;2023-04-23T11:27:38;16.90;;;10.02;;
51838;SDS011;37886;53.174;6.368;2023-04-23T11:32:38;12.30;;;8.55;;
51838;SDS011;37886;53.174;6.368;2023-04-23T11:35:05;10.98;;;8.68;;
51838;SDS011;37886;53.174;6.368;2023-04-23T11:37:37;12.25;;;8.77;;
51838;SDS011;37886;53.174;6.368;2023-04-23T11:40:06;12.57;;;8.55;;
51838;SDS011;37886;53.174;6.368;2023-04-23T11:42:44;10.93;;;7.80;;
51838;SDS011;37886;53.174;6.368;2023-04-23T11:45:22;11.35;;;8.63;;
51838;SDS011;37886;53.174;6.368;2023-04-23T11:47:50;17.33;;;9.10;;
51838;SDS011;37886;53.174;6.368;2023-04-23T11:50:20;13.10;;;7.83;;
51838;SDS011;37886;53.174;6.368;2023-04-23T11:53:06;11.75;;;8.30;;
51838;SDS011;37886;53.174;6.368;2023-04-23T11:55:35;16.58;;;9.05;;
51838;SDS011;37886;53.174;6.368;2023-04-23T11:58:02;11.68;;;7.80;;
51838;SDS011;37886;53.174;6.368;2023-04-23T12:00:28;12.13;;;8.98;;
51838;SDS011;37886;53.174;6.368;2023-04-23T12:07:53;8.15;;;7.45;;
51838;SDS011;37886;53.174;6.368;2023-04-23T12:10:30;13.75;;;9.07;;
51838;SDS011;37886;53.174;6.368;2023-04-23T12:12:57;11.32;;;8.45;;
51838;SDS011;37886;53.174;6.368;2023-04-23T12:15:22;10.32;;;8.40;;
51838;SDS011;37886;53.174;6.368;2023-04-23T12:17:49;11.23;;;8.00;;
51838;SDS011;37886;53.174;6.368;2023-04-23T12:20:19;11.57;;;8.07;;
51838;SDS011;37886;53.174;6.368;2023-04-23T12:22:46;19.42;;;8.30;;
51838;SDS011;37886;53.174;6.368;2023-04-23T12:25:12;11.05;;;8.27;;
51838;SDS011;37886;53.174;6.368;2023-04-23T12:27:43;9.88;;;7.07;;
51838;SDS011;37886;53.174;6.368;2023-04-23T12:30:09;9.43;;;8.13;;
51838;SDS011;37886;53.174;6.368;2023-04-23T12:32:36;11.43;;;7.97;;
51838;SDS011;37886;53.174;6.368;2023-04-23T12:35:01;10.85;;;8.75;;
51838;SDS011;37886;53.174;6.368;2023-04-23T12:37:30;12.07;;;8.32;;
51838;SDS011;37886;53.174;6.368;2023-04-23T12:40:01;9.60;;;7.55;;
51838;SDS011;37886;53.174;6.368;2023-04-23T12:42:27;13.48;;;8.85;;
51838;SDS011;37886;53.174;6.368;2023-04-23T12:44:52;11.05;;;7.30;;
51838;SDS011;37886;53.174;6.368;2023-04-23T12:47:21;10.77;;;7.82;;
51838;SDS011;37886;53.174;6.368;2023-04-23T12:49:48;10.05;;;8.02;;
51838;SDS011;37886;53.174;6.368;2023-04-23T12:52:17;12.88;;;7.47;;
51838;SDS011;37886;53.174;6.368;2023-04-23T12:54:42;11.48;;;7.80;;
51838;SDS011;37886;53.174;6.368;2023-04-23T12:57:12;10.00;;;7.25;;
51838;SDS011;37886;53.174;6.368;2023-04-23T12:59:45;10.27;;;7.72;;
51838;SDS011;37886;53.174;6.368;2023-04-23T13:02:11;12.90;;;7.43;;
51838;SDS011;37886;53.174;6.368;2023-04-23T13:04:37;14.05;;;8.15;;
51838;SDS011;37886;53.174;6.368;2023-04-23T13:07:03;11.60;;;8.52;;
51838;SDS011;37886;53.174;6.368;2023-04-23T13:09:29;13.23;;;7.90;;
51838;SDS011;37886;53.174;6.368;2023-04-23T13:11:54;13.65;;;7.68;;
51838;SDS011;37886;53.174;6.368;2023-04-23T13:14:21;10.82;;;7.28;;
51838;SDS011;37886;53.174;6.368;2023-04-23T13:16:47;10.88;;;8.02;;
51838;SDS011;37886;53.174;6.368;2023-04-23T13:19:12;12.77;;;7.90;;
51838;SDS011;37886;53.174;6.368;2023-04-23T13:21:40;13.23;;;7.78;;
51838;SDS011;37886;53.174;6.368;2023-04-23T13:24:05;8.32;;;7.53;;
51838;SDS011;37886;53.174;6.368;2023-04-23T13:26:31;13.23;;;7.95;;
51838;SDS011;37886;53.174;6.368;2023-04-23T13:29:00;8.80;;;7.55;;
51838;SDS011;37886;53.174;6.368;2023-04-23T13:31:27;8.30;;;7.47;;
51838;SDS011;37886;53.174;6.368;2023-04-23T13:33:53;12.30;;;7.43;;
51838;SDS011;37886;53.174;6.368;2023-04-23T13:36:19;7.93;;;7.13;;
51838;SDS011;37886;53.174;6.368;2023-04-23T13:38:48;10.80;;;7.38;;
51838;SDS011;37886;53.174;6.368;2023-04-23T13:41:14;14.43;;;7.03;;
51838;SDS011;37886;53.174;6.368;2023-04-23T13:43:40;9.52;;;7.93;;
51838;SDS011;37886;53.174;6.368;2023-04-23T13:46:05;11.15;;;7.60;;
51838;SDS011;37886;53.174;6.368;2023-04-23T13:48:31;10.13;;;8.43;;
51838;SDS011;37886;53.174;6.368;2023-04-23T13:50:57;8.68;;;7.60;;
51838;SDS011;37886;53.174;6.368;2023-04-23T13:53:24;9.55;;;7.68;;
51838;SDS011;37886;53.174;6.368;2023-04-23T13:55:50;7.97;;;6.93;;
51838;SDS011;37886;53.174;6.368;2023-04-23T13:58:16;10.50;;;7.97;;
51838;SDS011;37886;53.174;6.368;2023-04-23T14:00:42;12.75;;;8.30;;
51838;SDS011;37886;53.174;6.368;2023-04-23T14:03:08;8.73;;;7.03;;
51838;SDS011;37886;53.174;6.368;2023-04-23T14:05:34;8.93;;;8.00;;
51838;SDS011;37886;53.174;6.368;2023-04-23T14:08:00;10.80;;;9.77;;
51838;SDS011;37886;53.174;6.368;2023-04-23T14:10:32;9.77;;;7.30;;
51838;SDS011;37886;53.174;6.368;2023-04-23T14:12:58;11.57;;;7.88;;
51838;SDS011;37886;53.174;6.368;2023-04-23T14:15:24;10.48;;;8.23;;
51838;SDS011;37886;53.174;6.368;2023-04-23T14:17:50;10.60;;;7.57;;
51838;SDS011;37886;53.174;6.368;2023-04-23T14:20:16;13.43;;;8.43;;
51838;SDS011;37886;53.174;6.368;2023-04-23T14:22:47;9.90;;;7.88;;
51838;SDS011;37886;53.174;6.368;2023-04-23T14:25:15;10.15;;;7.78;;
51838;SDS011;37886;53.174;6.368;2023-04-23T14:28:22;9.95;;;8.68;;
51838;SDS011;37886;53.174;6.368;2023-04-23T14:30:52;12.60;;;8.10;;
51838;SDS011;37886;53.174;6.368;2023-04-23T14:33:19;9.40;;;8.35;;
51838;SDS011;37886;53.174;6.368;2023-04-23T14:35:45;10.27;;;7.40;;